sensor_id;sensor_type;location;lat;lon;timestamp;P1;durP1;ratioP1;P2;durP2;ratioP2
21822;SDS011;11074;48.596;9.238;2023-09-19T00:00:21;3.28;;;0.80;;
21822;SDS011;11074;48.596;9.238;2023-09-19T00:02:56;1.40;;;0.60;;
21822;SDS011;11074;48.596;9.238;2023-09-19T00:05:24;1.58;;;0.70;;
21822;SDS011;11074;48.596;9.238;2023-09-19T00:07:53;1.33;;;0.70;;
21822;SDS011;11074;48.596;9.238;2023-09-19T00:10:23;1.33;;;0.80;;
21822;SDS011;11074;48.596;9.238;2023-09-19T00:12:56;1.80;;;0.60;;
21822;SDS011;11074;48.596;9.238;2023-09-19T00:15:25;1.73;;;0.70;;
21822;SDS011;11074;48.596;9.238;2023-09-19T00:17:54;2.47;;;1.10;;
21822;SDS011;11074;48.596;9.238;2023-09-19T00:20:20;2.97;;;0.75;;
21822;SDS011;11074;48.596;9.238;2023-09-19T00:22:48;2.90;;;0.70;;
21822;SDS011;11074;48.596;9.238;2023-09-19T00:25:18;2.75;;;0.80;;
21822;SDS011;11074;48.596;9.238;2023-09-19T00:27:47;1.95;;;0.80;;
21822;SDS011;11074;48.596;9.238;2023-09-19T00:30:14;2.80;;;0.70;;
21822;SDS011;11074;48.596;9.238;2023-09-19T00:32:44;0.73;;;0.50;;
21822;SDS011;11074;48.596;9.238;2023-09-19T00:35:12;2.53;;;0.80;;
21822;SDS011;11074;48.596;9.238;2023-09-19T00:37:40;3.30;;;0.90;;
21822;SDS011;11074;48.596;9.238;2023-09-19T00:40:07;2.13;;;0.70;;
21822;SDS011;11074;48.596;9.238;2023-09-19T00:42:41;1.63;;;0.80;;
21822;SDS011;11074;48.596;9.238;2023-09-19T00:45:08;2.35;;;0.70;;
21822;SDS011;11074;48.596;9.238;2023-09-19T00:47:42;1.92;;;0.90;;
21822;SDS011;11074;48.596;9.238;2023-09-19T00:50:17;2.42;;;0.80;;
21822;SDS011;11074;48.596;9.238;2023-09-19T00:52:46;2.72;;;0.80;;
21822;SDS011;11074;48.596;9.238;2023-09-19T00:55:14;1.88;;;0.60;;
21822;SDS011;11074;48.596;9.238;2023-09-19T00:57:44;1.85;;;0.80;;
21822;SDS011;11074;48.596;9.238;2023-09-19T01:00:12;2.63;;;0.70;;
21822;SDS011;11074;48.596;9.238;2023-09-19T01:02:41;1.80;;;0.90;;
21822;SDS011;11074;48.596;9.238;2023-09-19T01:05:08;1.42;;;0.70;;
21822;SDS011;11074;48.596;9.238;2023-09-19T01:07:35;0.88;;;0.60;;
21822;SDS011;11074;48.596;9.238;2023-09-19T01:10:05;2.03;;;0.70;;
21822;SDS011;11074;48.596;9.238;2023-09-19T01:12:45;1.52;;;0.82;;
21822;SDS011;11074;48.596;9.238;2023-09-19T01:16:03;2.03;;;0.73;;
21822;SDS011;11074;48.596;9.238;2023-09-19T01:18:52;2.08;;;0.75;;
21822;SDS011;11074;48.596;9.238;2023-09-19T01:31:01;1.25;;;0.60;;
21822;SDS011;11074;48.596;9.238;2023-09-19T01:33:53;1.17;;;0.70;;
21822;SDS011;11074;48.596;9.238;2023-09-19T01:36:33;2.15;;;0.70;;
21822;SDS011;11074;48.596;9.238;2023-09-19T01:39:05;3.88;;;0.98;;
21822;SDS011;11074;48.596;9.238;2023-09-19T01:41:41;1.65;;;0.63;;
21822;SDS011;11074;48.596;9.238;2023-09-19T01:48:01;2.38;;;0.85;;
21822;SDS011;11074;48.596;9.238;2023-09-19T01:51:10;1.70;;;0.70;;
21822;SDS011;11074;48.596;9.238;2023-09-19T01:53:49;1.90;;;0.57;;
21822;SDS011;11074;48.596;9.238;2023-09-19T01:56:38;1.52;;;0.70;;
21822;SDS011;11074;48.596;9.238;2023-09-19T01:59:35;1.83;;;0.90;;
21822;SDS011;11074;48.596;9.238;2023-09-19T02:02:09;2.78;;;0.90;;
21822;SDS011;11074;48.596;9.238;2023-09-19T02:04:37;2.00;;;0.80;;
21822;SDS011;11074;48.596;9.238;2023-09-19T02:07:02;0.85;;;0.70;;
21822;SDS011;11074;48.596;9.238;2023-09-19T02:09:30;1.52;;;0.80;;
21822;SDS011;11074;48.596;9.238;2023-09-19T02:12:00;2.92;;;0.90;;
21822;SDS011;11074;48.596;9.238;2023-09-19T02:14:28;1.83;;;0.77;;
21822;SDS011;11074;48.596;9.238;2023-09-19T02:16:54;1.95;;;0.65;;
21822;SDS011;11074;48.596;9.238;2023-09-19T02:19:21;2.40;;;0.70;;
21822;SDS011;11074;48.596;9.238;2023-09-19T02:21:47;1.55;;;0.60;;
21822;SDS011;11074;48.596;9.238;2023-09-19T02:24:13;1.73;;;0.80;;
21822;SDS011;11074;48.596;9.238;2023-09-19T02:26:40;1.50;;;0.82;;
21822;SDS011;11074;48.596;9.238;2023-09-19T02:29:06;1.58;;;0.80;;
21822;SDS011;11074;48.596;9.238;2023-09-19T02:31:32;1.60;;;0.80;;
21822;SDS011;11074;48.596;9.238;2023-09-19T02:33:57;1.00;;;0.60;;
21822;SDS011;11074;48.596;9.238;2023-09-19T02:36:25;1.45;;;0.65;;
21822;SDS011;11074;48.596;9.238;2023-09-19T02:38:51;1.58;;;0.80;;
21822;SDS011;11074;48.596;9.238;2023-09-19T02:41:16;1.52;;;0.82;;
21822;SDS011;11074;48.596;9.238;2023-09-19T02:43:42;3.00;;;0.77;;
21822;SDS011;11074;48.596;9.238;2023-09-19T02:46:08;1.90;;;1.00;;
21822;SDS011;11074;48.596;9.238;2023-09-19T02:48:34;1.83;;;0.95;;
21822;SDS011;11074;48.596;9.238;2023-09-19T02:51:00;2.33;;;0.75;;
21822;SDS011;11074;48.596;9.238;2023-09-19T02:53:28;2.67;;;0.82;;
21822;SDS011;11074;48.596;9.238;2023-09-19T02:55:55;1.48;;;0.82;;
21822;SDS011;11074;48.596;9.238;2023-09-19T02:58:21;1.60;;;0.60;;
21822;SDS011;11074;48.596;9.238;2023-09-19T03:00:48;1.00;;;0.70;;
21822;SDS011;11074;48.596;9.238;2023-09-19T03:03:16;2.60;;;0.90;;
21822;SDS011;11074;48.596;9.238;2023-09-19T03:05:42;1.77;;;0.80;;
21822;SDS011;11074;48.596;9.238;2023-09-19T03:08:11;1.75;;;0.80;;
21822;SDS011;11074;48.596;9.238;2023-09-19T03:10:40;2.00;;;0.90;;
21822;SDS011;11074;48.596;9.238;2023-09-19T03:13:05;1.05;;;0.55;;
21822;SDS011;11074;48.596;9.238;2023-09-19T03:15:34;1.75;;;0.82;;
21822;SDS011;11074;48.596;9.238;2023-09-19T03:18:04;2.88;;;0.90;;
21822;SDS011;11074;48.596;9.238;2023-09-19T03:20:30;1.92;;;0.77;;
21822;SDS011;11074;48.596;9.238;2023-09-19T03:22:56;1.58;;;0.88;;
21822;SDS011;11074;48.596;9.238;2023-09-19T03:25:22;1.92;;;1.10;;
21822;SDS011;11074;48.596;9.238;2023-09-19T03:27:49;2.42;;;1.10;;
21822;SDS011;11074;48.596;9.238;2023-09-19T03:30:15;1.75;;;0.80;;
21822;SDS011;11074;48.596;9.238;2023-09-19T03:32:47;1.63;;;0.77;;
21822;SDS011;11074;48.596;9.238;2023-09-19T03:35:14;2.20;;;1.00;;
21822;SDS011;11074;48.596;9.238;2023-09-19T03:37:41;2.25;;;0.90;;
21822;SDS011;11074;48.596;9.238;2023-09-19T03:40:11;1.02;;;0.65;;
21822;SDS011;11074;48.596;9.238;2023-09-19T03:42:38;1.63;;;1.00;;
21822;SDS011;11074;48.596;9.238;2023-09-19T03:45:07;1.83;;;0.90;;
21822;SDS011;11074;48.596;9.238;2023-09-19T03:47:37;1.85;;;0.90;;
21822;SDS011;11074;48.596;9.238;2023-09-19T03:50:04;2.17;;;1.10;;
21822;SDS011;11074;48.596;9.238;2023-09-19T03:52:33;2.05;;;0.98;;
21822;SDS011;11074;48.596;9.238;2023-09-19T03:54:59;2.95;;;1.00;;
21822;SDS011;11074;48.596;9.238;2023-09-19T03:57:26;4.40;;;0.90;;
21822;SDS011;11074;48.596;9.238;2023-09-19T03:59:52;1.30;;;0.68;;
21822;SDS011;11074;48.596;9.238;2023-09-19T04:02:18;1.30;;;0.90;;
21822;SDS011;11074;48.596;9.238;2023-09-19T04:04:48;1.23;;;0.90;;
21822;SDS011;11074;48.596;9.238;2023-09-19T04:07:15;4.45;;;0.90;;
21822;SDS011;11074;48.596;9.238;2023-09-19T04:09:41;2.70;;;1.00;;
21822;SDS011;11074;48.596;9.238;2023-09-19T04:12:07;2.28;;;1.05;;
21822;SDS011;11074;48.596;9.238;2023-09-19T04:14:37;1.80;;;0.90;;
21822;SDS011;11074;48.596;9.238;2023-09-19T04:17:04;1.00;;;0.80;;
21822;SDS011;11074;48.596;9.238;2023-09-19T04:19:30;2.28;;;0.82;;
21822;SDS011;11074;48.596;9.238;2023-09-19T04:21:56;2.20;;;1.10;;
21822;SDS011;11074;48.596;9.238;2023-09-19T04:24:22;2.35;;;1.10;;
21822;SDS011;11074;48.596;9.238;2023-09-19T04:26:47;4.57;;;1.35;;
21822;SDS011;11074;48.596;9.238;2023-09-19T04:29:13;3.13;;;0.95;;
21822;SDS011;11074;48.596;9.238;2023-09-19T04:31:39;4.20;;;1.13;;
21822;SDS011;11074;48.596;9.238;2023-09-19T04:34:05;3.70;;;1.13;;
21822;SDS011;11074;48.596;9.238;2023-09-19T04:36:33;3.25;;;0.90;;
21822;SDS011;11074;48.596;9.238;2023-09-19T04:39:01;2.38;;;0.77;;
21822;SDS011;11074;48.596;9.238;2023-09-19T04:41:30;2.67;;;1.17;;
21822;SDS011;11074;48.596;9.238;2023-09-19T04:43:56;2.45;;;0.90;;
21822;SDS011;11074;48.596;9.238;2023-09-19T04:46:22;1.60;;;0.90;;
21822;SDS011;11074;48.596;9.238;2023-09-19T04:48:47;1.23;;;0.90;;
21822;SDS011;11074;48.596;9.238;2023-09-19T04:51:13;2.25;;;0.80;;
21822;SDS011;11074;48.596;9.238;2023-09-19T04:53:40;2.17;;;1.20;;
21822;SDS011;11074;48.596;9.238;2023-09-19T04:56:06;2.92;;;0.82;;
21822;SDS011;11074;48.596;9.238;2023-09-19T04:58:32;2.25;;;1.10;;
21822;SDS011;11074;48.596;9.238;2023-09-19T05:00:58;4.07;;;1.00;;
21822;SDS011;11074;48.596;9.238;2023-09-19T05:03:24;2.75;;;1.30;;
21822;SDS011;11074;48.596;9.238;2023-09-19T05:05:50;3.88;;;1.20;;
21822;SDS011;11074;48.596;9.238;2023-09-19T05:08:16;1.85;;;1.27;;
21822;SDS011;11074;48.596;9.238;2023-09-19T05:10:41;2.30;;;1.40;;
21822;SDS011;11074;48.596;9.238;2023-09-19T05:13:07;2.35;;;1.13;;
21822;SDS011;11074;48.596;9.238;2023-09-19T05:15:33;3.03;;;1.30;;
21822;SDS011;11074;48.596;9.238;2023-09-19T05:18:00;2.58;;;1.15;;
21822;SDS011;11074;48.596;9.238;2023-09-19T05:20:26;3.58;;;1.40;;
21822;SDS011;11074;48.596;9.238;2023-09-19T05:23:12;3.53;;;1.30;;
21822;SDS011;11074;48.596;9.238;2023-09-19T05:25:38;3.13;;;1.20;;
21822;SDS011;11074;48.596;9.238;2023-09-19T05:28:05;2.10;;;1.00;;
21822;SDS011;11074;48.596;9.238;2023-09-19T05:30:32;4.03;;;1.42;;
21822;SDS011;11074;48.596;9.238;2023-09-19T05:33:00;3.30;;;1.27;;
21822;SDS011;11074;48.596;9.238;2023-09-19T05:35:29;2.33;;;1.35;;
21822;SDS011;11074;48.596;9.238;2023-09-19T05:37:57;2.45;;;1.50;;
21822;SDS011;11074;48.596;9.238;2023-09-19T05:40:23;3.90;;;1.20;;
21822;SDS011;11074;48.596;9.238;2023-09-19T05:42:53;5.78;;;1.02;;
21822;SDS011;11074;48.596;9.238;2023-09-19T05:45:28;1.95;;;1.40;;
21822;SDS011;11074;48.596;9.238;2023-09-19T05:48:05;3.08;;;1.25;;
21822;SDS011;11074;48.596;9.238;2023-09-19T05:50:34;2.33;;;1.20;;
21822;SDS011;11074;48.596;9.238;2023-09-19T05:53:01;2.88;;;1.17;;
21822;SDS011;11074;48.596;9.238;2023-09-19T05:55:27;3.20;;;1.20;;
21822;SDS011;11074;48.596;9.238;2023-09-19T05:57:53;2.60;;;1.10;;
21822;SDS011;11074;48.596;9.238;2023-09-19T06:00:20;2.97;;;1.20;;
21822;SDS011;11074;48.596;9.238;2023-09-19T06:02:52;1.83;;;1.27;;
21822;SDS011;11074;48.596;9.238;2023-09-19T06:05:19;3.55;;;1.40;;
21822;SDS011;11074;48.596;9.238;2023-09-19T06:07:46;2.55;;;1.20;;
21822;SDS011;11074;48.596;9.238;2023-09-19T06:10:12;4.28;;;1.38;;
21822;SDS011;11074;48.596;9.238;2023-09-19T06:12:39;2.72;;;1.30;;
21822;SDS011;11074;48.596;9.238;2023-09-19T06:15:08;2.80;;;1.50;;
21822;SDS011;11074;48.596;9.238;2023-09-19T06:17:40;3.08;;;1.40;;
21822;SDS011;11074;48.596;9.238;2023-09-19T06:20:13;3.40;;;1.27;;
21822;SDS011;11074;48.596;9.238;2023-09-19T06:22:40;2.13;;;1.05;;
21822;SDS011;11074;48.596;9.238;2023-09-19T06:25:11;1.98;;;1.00;;
21822;SDS011;11074;48.596;9.238;2023-09-19T06:27:44;2.47;;;1.05;;
21822;SDS011;11074;48.596;9.238;2023-09-19T06:30:10;1.95;;;1.02;;
21822;SDS011;11074;48.596;9.238;2023-09-19T06:32:37;1.90;;;1.00;;
21822;SDS011;11074;48.596;9.238;2023-09-19T06:35:03;2.28;;;0.80;;
21822;SDS011;11074;48.596;9.238;2023-09-19T06:37:32;3.50;;;0.90;;
21822;SDS011;11074;48.596;9.238;2023-09-19T06:39:59;1.15;;;0.70;;
21822;SDS011;11074;48.596;9.238;2023-09-19T06:42:25;1.63;;;0.85;;
21822;SDS011;11074;48.596;9.238;2023-09-19T06:44:53;1.88;;;0.85;;
21822;SDS011;11074;48.596;9.238;2023-09-19T06:47:19;3.47;;;0.90;;
21822;SDS011;11074;48.596;9.238;2023-09-19T06:49:45;4.68;;;1.08;;
21822;SDS011;11074;48.596;9.238;2023-09-19T06:52:11;3.90;;;1.00;;
21822;SDS011;11074;48.596;9.238;2023-09-19T06:54:37;5.05;;;1.00;;
21822;SDS011;11074;48.596;9.238;2023-09-19T06:57:04;2.35;;;0.82;;
21822;SDS011;11074;48.596;9.238;2023-09-19T06:59:34;2.38;;;0.93;;
21822;SDS011;11074;48.596;9.238;2023-09-19T07:02:01;4.00;;;1.10;;
21822;SDS011;11074;48.596;9.238;2023-09-19T07:04:26;2.95;;;1.25;;
21822;SDS011;11074;48.596;9.238;2023-09-19T07:06:54;3.90;;;1.50;;
21822;SDS011;11074;48.596;9.238;2023-09-19T07:09:23;1.85;;;1.13;;
21822;SDS011;11074;48.596;9.238;2023-09-19T07:11:52;2.72;;;1.17;;
21822;SDS011;11074;48.596;9.238;2023-09-19T07:14:18;4.35;;;1.00;;
21822;SDS011;11074;48.596;9.238;2023-09-19T07:16:44;3.17;;;1.27;;
21822;SDS011;11074;48.596;9.238;2023-09-19T07:19:10;2.08;;;1.00;;
21822;SDS011;11074;48.596;9.238;2023-09-19T07:21:36;2.42;;;1.10;;
21822;SDS011;11074;48.596;9.238;2023-09-19T07:24:03;2.95;;;1.30;;
21822;SDS011;11074;48.596;9.238;2023-09-19T07:26:29;5.82;;;1.52;;
21822;SDS011;11074;48.596;9.238;2023-09-19T07:28:56;3.47;;;1.30;;
21822;SDS011;11074;48.596;9.238;2023-09-19T07:31:22;6.88;;;1.58;;
21822;SDS011;11074;48.596;9.238;2023-09-19T07:33:48;9.05;;;1.70;;
21822;SDS011;11074;48.596;9.238;2023-09-19T07:36:14;5.30;;;1.52;;
21822;SDS011;11074;48.596;9.238;2023-09-19T07:38:41;4.57;;;1.60;;
21822;SDS011;11074;48.596;9.238;2023-09-19T07:41:07;5.00;;;1.80;;
21822;SDS011;11074;48.596;9.238;2023-09-19T07:43:36;9.50;;;1.45;;
21822;SDS011;11074;48.596;9.238;2023-09-19T07:46:08;5.43;;;1.65;;
21822;SDS011;11074;48.596;9.238;2023-09-19T07:48:37;4.95;;;1.25;;
21822;SDS011;11074;48.596;9.238;2023-09-19T07:51:07;2.70;;;1.27;;
21822;SDS011;11074;48.596;9.238;2023-09-19T07:53:36;2.72;;;1.10;;
21822;SDS011;11074;48.596;9.238;2023-09-19T07:56:05;5.10;;;1.23;;
21822;SDS011;11074;48.596;9.238;2023-09-19T07:58:33;2.35;;;1.10;;
21822;SDS011;11074;48.596;9.238;2023-09-19T08:01:07;3.10;;;1.05;;
21822;SDS011;11074;48.596;9.238;2023-09-19T08:03:35;3.88;;;1.10;;
21822;SDS011;11074;48.596;9.238;2023-09-19T08:06:09;1.58;;;0.90;;
21822;SDS011;11074;48.596;9.238;2023-09-19T08:08:35;6.28;;;1.20;;
21822;SDS011;11074;48.596;9.238;2023-09-19T08:11:05;3.08;;;1.10;;
21822;SDS011;11074;48.596;9.238;2023-09-19T08:13:36;2.88;;;1.23;;
21822;SDS011;11074;48.596;9.238;2023-09-19T08:16:12;2.10;;;1.00;;
21822;SDS011;11074;48.596;9.238;2023-09-19T08:18:40;3.38;;;1.17;;
21822;SDS011;11074;48.596;9.238;2023-09-19T08:21:06;3.15;;;1.13;;
21822;SDS011;11074;48.596;9.238;2023-09-19T08:23:36;5.65;;;1.15;;
21822;SDS011;11074;48.596;9.238;2023-09-19T08:26:03;2.55;;;0.93;;
21822;SDS011;11074;48.596;9.238;2023-09-19T08:28:31;1.77;;;1.08;;
21822;SDS011;11074;48.596;9.238;2023-09-19T08:31:01;2.00;;;1.02;;
21822;SDS011;11074;48.596;9.238;2023-09-19T08:33:33;2.08;;;1.00;;
21822;SDS011;11074;48.596;9.238;2023-09-19T08:36:04;2.78;;;1.02;;
21822;SDS011;11074;48.596;9.238;2023-09-19T08:38:33;1.92;;;0.98;;
21822;SDS011;11074;48.596;9.238;2023-09-19T08:41:00;2.45;;;0.95;;
21822;SDS011;11074;48.596;9.238;2023-09-19T08:43:31;7.90;;;1.02;;
21822;SDS011;11074;48.596;9.238;2023-09-19T08:48:33;3.28;;;0.93;;
21822;SDS011;11074;48.596;9.238;2023-09-19T08:51:07;1.52;;;0.90;;
21822;SDS011;11074;48.596;9.238;2023-09-19T08:53:54;3.00;;;1.00;;
21822;SDS011;11074;48.596;9.238;2023-09-19T08:56:32;2.08;;;1.02;;
21822;SDS011;11074;48.596;9.238;2023-09-19T08:59:04;3.90;;;1.15;;
21822;SDS011;11074;48.596;9.238;2023-09-19T09:01:36;2.45;;;0.85;;
21822;SDS011;11074;48.596;9.238;2023-09-19T09:04:06;2.08;;;1.10;;
21822;SDS011;11074;48.596;9.238;2023-09-19T09:06:37;1.80;;;0.93;;
21822;SDS011;11074;48.596;9.238;2023-09-19T09:09:08;2.55;;;0.90;;
21822;SDS011;11074;48.596;9.238;2023-09-19T09:11:34;4.82;;;1.10;;
21822;SDS011;11074;48.596;9.238;2023-09-19T09:14:04;2.85;;;1.10;;
21822;SDS011;11074;48.596;9.238;2023-09-19T09:16:34;1.55;;;0.90;;
21822;SDS011;11074;48.596;9.238;2023-09-19T09:19:00;4.30;;;0.90;;
21822;SDS011;11074;48.596;9.238;2023-09-19T09:21:26;1.33;;;0.88;;
21822;SDS011;11074;48.596;9.238;2023-09-19T09:23:53;1.25;;;0.95;;
21822;SDS011;11074;48.596;9.238;2023-09-19T09:29:15;1.15;;;0.80;;
21822;SDS011;11074;48.596;9.238;2023-09-19T09:31:41;2.83;;;1.20;;
21822;SDS011;11074;48.596;9.238;2023-09-19T09:34:07;2.20;;;0.80;;
21822;SDS011;11074;48.596;9.238;2023-09-19T09:36:34;3.17;;;1.00;;
21822;SDS011;11074;48.596;9.238;2023-09-19T09:39:06;6.57;;;1.38;;
21822;SDS011;11074;48.596;9.238;2023-09-19T09:41:50;1.65;;;1.15;;
21822;SDS011;11074;48.596;9.238;2023-09-19T09:44:16;2.45;;;1.13;;
21822;SDS011;11074;48.596;9.238;2023-09-19T09:46:44;2.08;;;1.00;;
21822;SDS011;11074;48.596;9.238;2023-09-19T09:49:23;2.67;;;1.05;;
21822;SDS011;11074;48.596;9.238;2023-09-19T09:51:58;2.70;;;1.20;;
21822;SDS011;11074;48.596;9.238;2023-09-19T09:54:30;2.63;;;1.00;;
21822;SDS011;11074;48.596;9.238;2023-09-19T09:57:07;3.25;;;1.05;;
21822;SDS011;11074;48.596;9.238;2023-09-19T09:59:48;1.70;;;1.00;;
21822;SDS011;11074;48.596;9.238;2023-09-19T10:02:21;3.03;;;1.15;;
21822;SDS011;11074;48.596;9.238;2023-09-19T10:05:14;2.42;;;1.02;;
21822;SDS011;11074;48.596;9.238;2023-09-19T10:07:45;2.40;;;0.95;;
21822;SDS011;11074;48.596;9.238;2023-09-19T10:10:32;2.03;;;1.20;;
21822;SDS011;11074;48.596;9.238;2023-09-19T10:13:09;1.85;;;1.10;;
21822;SDS011;11074;48.596;9.238;2023-09-19T10:15:43;2.50;;;1.00;;
21822;SDS011;11074;48.596;9.238;2023-09-19T10:18:20;3.13;;;1.20;;
21822;SDS011;11074;48.596;9.238;2023-09-19T10:20:48;3.45;;;1.38;;
21822;SDS011;11074;48.596;9.238;2023-09-19T10:23:16;1.73;;;0.80;;
21822;SDS011;11074;48.596;9.238;2023-09-19T10:25:48;2.97;;;1.10;;
21822;SDS011;11074;48.596;9.238;2023-09-19T10:28:17;2.22;;;0.98;;
21822;SDS011;11074;48.596;9.238;2023-09-19T10:30:48;2.50;;;1.10;;
21822;SDS011;11074;48.596;9.238;2023-09-19T10:33:17;2.85;;;1.20;;
21822;SDS011;11074;48.596;9.238;2023-09-19T10:35:46;3.53;;;1.13;;
21822;SDS011;11074;48.596;9.238;2023-09-19T10:38:19;2.08;;;1.02;;
21822;SDS011;11074;48.596;9.238;2023-09-19T10:40:50;2.33;;;1.20;;
21822;SDS011;11074;48.596;9.238;2023-09-19T10:43:19;1.90;;;1.10;;
21822;SDS011;11074;48.596;9.238;2023-09-19T10:45:47;1.90;;;1.17;;
21822;SDS011;11074;48.596;9.238;2023-09-19T10:48:17;2.08;;;1.13;;
21822;SDS011;11074;48.596;9.238;2023-09-19T10:50:46;2.40;;;1.13;;
21822;SDS011;11074;48.596;9.238;2023-09-19T10:53:24;3.22;;;1.10;;
21822;SDS011;11074;48.596;9.238;2023-09-19T10:55:55;4.18;;;1.33;;
21822;SDS011;11074;48.596;9.238;2023-09-19T10:58:28;2.97;;;1.20;;
21822;SDS011;11074;48.596;9.238;2023-09-19T11:00:59;2.92;;;1.15;;
21822;SDS011;11074;48.596;9.238;2023-09-19T11:03:30;2.80;;;1.30;;
21822;SDS011;11074;48.596;9.238;2023-09-19T11:06:16;1.80;;;1.17;;
21822;SDS011;11074;48.596;9.238;2023-09-19T11:11:40;3.15;;;1.30;;
21822;SDS011;11074;48.596;9.238;2023-09-19T11:20:15;2.20;;;1.17;;
21822;SDS011;11074;48.596;9.238;2023-09-19T11:30:34;2.58;;;1.15;;
21822;SDS011;11074;48.596;9.238;2023-09-19T11:36:14;2.95;;;1.17;;
21822;SDS011;11074;48.596;9.238;2023-09-19T11:43:45;1.02;;;0.90;;
21822;SDS011;11074;48.596;9.238;2023-09-19T11:46:15;2.65;;;1.05;;
21822;SDS011;11074;48.596;9.238;2023-09-19T11:48:47;1.90;;;1.00;;
21822;SDS011;11074;48.596;9.238;2023-09-19T11:51:18;1.77;;;0.90;;
21822;SDS011;11074;48.596;9.238;2023-09-19T11:53:51;2.00;;;1.00;;
21822;SDS011;11074;48.596;9.238;2023-09-19T11:56:27;2.72;;;1.02;;
21822;SDS011;11074;48.596;9.238;2023-09-19T11:58:54;3.25;;;1.05;;
21822;SDS011;11074;48.596;9.238;2023-09-19T12:01:30;3.40;;;1.00;;
21822;SDS011;11074;48.596;9.238;2023-09-19T12:04:00;2.25;;;0.85;;
21822;SDS011;11074;48.596;9.238;2023-09-19T12:06:29;2.03;;;1.00;;
21822;SDS011;11074;48.596;9.238;2023-09-19T12:08:57;2.88;;;1.00;;
21822;SDS011;11074;48.596;9.238;2023-09-19T12:11:29;2.28;;;1.08;;
21822;SDS011;11074;48.596;9.238;2023-09-19T12:13:58;1.80;;;1.05;;
21822;SDS011;11074;48.596;9.238;2023-09-19T12:16:28;4.00;;;1.20;;
21822;SDS011;11074;48.596;9.238;2023-09-19T12:18:58;6.10;;;1.20;;
21822;SDS011;11074;48.596;9.238;2023-09-19T12:21:56;1.48;;;0.77;;
21822;SDS011;11074;48.596;9.238;2023-09-19T12:24:29;2.15;;;1.08;;
21822;SDS011;11074;48.596;9.238;2023-09-19T12:26:59;2.95;;;1.00;;
21822;SDS011;11074;48.596;9.238;2023-09-19T12:29:29;1.65;;;0.90;;
21822;SDS011;11074;48.596;9.238;2023-09-19T12:31:56;1.80;;;0.77;;
21822;SDS011;11074;48.596;9.238;2023-09-19T12:34:25;1.85;;;0.95;;
21822;SDS011;11074;48.596;9.238;2023-09-19T12:37:05;1.60;;;0.82;;
21822;SDS011;11074;48.596;9.238;2023-09-19T12:39:46;1.00;;;0.80;;
21822;SDS011;11074;48.596;9.238;2023-09-19T12:42:25;2.00;;;0.82;;
21822;SDS011;11074;48.596;9.238;2023-09-19T12:44:57;1.55;;;0.85;;
21822;SDS011;11074;48.596;9.238;2023-09-19T12:47:26;1.33;;;0.90;;
21822;SDS011;11074;48.596;9.238;2023-09-19T12:50:10;1.92;;;0.80;;
21822;SDS011;11074;48.596;9.238;2023-09-19T12:53:00;1.60;;;0.90;;
21822;SDS011;11074;48.596;9.238;2023-09-19T12:55:27;1.85;;;1.00;;
21822;SDS011;11074;48.596;9.238;2023-09-19T12:58:02;2.08;;;0.90;;
21822;SDS011;11074;48.596;9.238;2023-09-19T13:00:44;2.92;;;0.98;;
21822;SDS011;11074;48.596;9.238;2023-09-19T13:03:14;2.03;;;1.00;;
21822;SDS011;11074;48.596;9.238;2023-09-19T13:05:58;1.30;;;0.80;;
21822;SDS011;11074;48.596;9.238;2023-09-19T13:08:28;2.55;;;0.80;;
21822;SDS011;11074;48.596;9.238;2023-09-19T13:11:03;1.73;;;0.93;;
21822;SDS011;11074;48.596;9.238;2023-09-19T13:13:35;2.63;;;0.93;;
21822;SDS011;11074;48.596;9.238;2023-09-19T13:16:02;2.08;;;1.00;;
21822;SDS011;11074;48.596;9.238;2023-09-19T13:18:41;5.45;;;1.33;;
21822;SDS011;11074;48.596;9.238;2023-09-19T13:21:09;1.90;;;1.13;;
21822;SDS011;11074;48.596;9.238;2023-09-19T13:23:47;1.52;;;0.80;;
21822;SDS011;11074;48.596;9.238;2023-09-19T13:26:15;1.50;;;0.95;;
21822;SDS011;11074;48.596;9.238;2023-09-19T13:28:41;1.77;;;0.95;;
21822;SDS011;11074;48.596;9.238;2023-09-19T13:31:06;4.00;;;0.90;;
21822;SDS011;11074;48.596;9.238;2023-09-19T13:33:35;1.58;;;0.90;;
21822;SDS011;11074;48.596;9.238;2023-09-19T13:36:12;2.92;;;1.00;;
21822;SDS011;11074;48.596;9.238;2023-09-19T13:38:41;4.13;;;1.20;;
21822;SDS011;11074;48.596;9.238;2023-09-19T13:41:08;1.58;;;1.00;;
21822;SDS011;11074;48.596;9.238;2023-09-19T13:43:38;2.35;;;1.10;;
21822;SDS011;11074;48.596;9.238;2023-09-19T13:46:05;1.40;;;1.00;;
21822;SDS011;11074;48.596;9.238;2023-09-19T13:48:37;2.83;;;1.00;;
21822;SDS011;11074;48.596;9.238;2023-09-19T13:51:03;1.95;;;0.90;;
21822;SDS011;11074;48.596;9.238;2023-09-19T13:53:29;2.58;;;1.13;;
21822;SDS011;11074;48.596;9.238;2023-09-19T13:55:55;3.95;;;0.90;;
21822;SDS011;11074;48.596;9.238;2023-09-19T13:58:21;2.75;;;1.02;;
21822;SDS011;11074;48.596;9.238;2023-09-19T14:00:48;2.30;;;1.17;;
21822;SDS011;11074;48.596;9.238;2023-09-19T14:03:14;1.88;;;1.20;;
21822;SDS011;11074;48.596;9.238;2023-09-19T14:05:40;1.17;;;0.70;;
21822;SDS011;11074;48.596;9.238;2023-09-19T14:08:07;2.17;;;0.90;;
21822;SDS011;11074;48.596;9.238;2023-09-19T14:10:33;1.45;;;0.90;;
21822;SDS011;11074;48.596;9.238;2023-09-19T14:13:02;2.30;;;1.23;;
21822;SDS011;11074;48.596;9.238;2023-09-19T14:15:29;1.52;;;0.80;;
21822;SDS011;11074;48.596;9.238;2023-09-19T14:17:56;3.72;;;1.08;;
21822;SDS011;11074;48.596;9.238;2023-09-19T14:20:24;2.38;;;1.10;;
21822;SDS011;11074;48.596;9.238;2023-09-19T14:22:51;2.45;;;0.95;;
21822;SDS011;11074;48.596;9.238;2023-09-19T14:25:20;0.85;;;0.80;;
21822;SDS011;11074;48.596;9.238;2023-09-19T14:27:49;4.68;;;1.10;;
21822;SDS011;11074;48.596;9.238;2023-09-19T14:30:15;1.35;;;0.93;;
21822;SDS011;11074;48.596;9.238;2023-09-19T14:32:41;2.72;;;1.00;;
21822;SDS011;11074;48.596;9.238;2023-09-19T14:35:07;1.70;;;1.00;;
21822;SDS011;11074;48.596;9.238;2023-09-19T14:37:34;2.10;;;1.00;;
21822;SDS011;11074;48.596;9.238;2023-09-19T14:40:00;1.88;;;0.80;;
21822;SDS011;11074;48.596;9.238;2023-09-19T14:42:32;2.20;;;0.93;;
21822;SDS011;11074;48.596;9.238;2023-09-19T14:44:57;1.63;;;0.93;;
21822;SDS011;11074;48.596;9.238;2023-09-19T14:47:23;1.95;;;0.88;;
21822;SDS011;11074;48.596;9.238;2023-09-19T14:49:49;2.30;;;1.30;;
21822;SDS011;11074;48.596;9.238;2023-09-19T14:52:15;1.60;;;0.80;;
21822;SDS011;11074;48.596;9.238;2023-09-19T14:54:40;2.53;;;1.00;;
21822;SDS011;11074;48.596;9.238;2023-09-19T14:57:06;1.83;;;1.02;;
21822;SDS011;11074;48.596;9.238;2023-09-19T14:59:33;7.03;;;1.20;;
21822;SDS011;11074;48.596;9.238;2023-09-19T15:02:03;1.75;;;0.90;;
21822;SDS011;11074;48.596;9.238;2023-09-19T15:04:30;2.50;;;1.00;;
21822;SDS011;11074;48.596;9.238;2023-09-19T15:06:55;1.70;;;1.00;;
21822;SDS011;11074;48.596;9.238;2023-09-19T15:09:24;1.77;;;0.85;;
21822;SDS011;11074;48.596;9.238;2023-09-19T15:11:54;2.55;;;0.98;;
21822;SDS011;11074;48.596;9.238;2023-09-19T15:14:21;1.85;;;0.98;;
21822;SDS011;11074;48.596;9.238;2023-09-19T15:16:47;2.08;;;0.90;;
21822;SDS011;11074;48.596;9.238;2023-09-19T15:19:14;1.73;;;0.90;;
21822;SDS011;11074;48.596;9.238;2023-09-19T15:21:40;2.55;;;1.10;;
21822;SDS011;11074;48.596;9.238;2023-09-19T15:24:06;3.10;;;0.90;;
21822;SDS011;11074;48.596;9.238;2023-09-19T15:26:34;2.40;;;1.00;;
21822;SDS011;11074;48.596;9.238;2023-09-19T15:29:07;1.88;;;1.00;;
21822;SDS011;11074;48.596;9.238;2023-09-19T15:31:34;2.17;;;1.00;;
21822;SDS011;11074;48.596;9.238;2023-09-19T15:34:01;2.17;;;1.10;;
21822;SDS011;11074;48.596;9.238;2023-09-19T15:36:28;1.85;;;1.00;;
21822;SDS011;11074;48.596;9.238;2023-09-19T15:39:01;1.77;;;0.70;;
21822;SDS011;11074;48.596;9.238;2023-09-19T15:41:34;2.08;;;1.15;;
21822;SDS011;11074;48.596;9.238;2023-09-19T15:44:02;1.83;;;0.95;;
21822;SDS011;11074;48.596;9.238;2023-09-19T15:46:29;3.22;;;0.95;;